Time;durP1;ratioP1;P1;durP2;ratioP2;P2;SDS_P1;SDS_P2;PMS_P1;PMS_P2;Temp;Humidity;BMP_temperature;BMP_pressure;BME280_temperature;BME280_humidity;BME280_pressure;Samples;Min_cycle;Max_cycle;Signal;HPM_P1;HPM_P2
2021/10/20 00:03:40;;;;;;;3.35;2.65;;;;;15.90;100645.00;;;;10321415;28;20196;-79
2021/10/20 00:08:42;;;;;;;5.90;3.10;;;;;15.90;100633.00;;;;10283317;28;20270;-78
2021/10/20 00:13:46;;;;;;;6.30;3.00;;;;;15.90;100637.00;;;;10320846;28;20557;-79
2021/10/20 00:18:49;;;;;;;3.50;3.20;;;;;16.00;100619.00;;;;10275228;28;20251;-79
2021/10/20 00:23:52;;;;;;;8.23;3.53;;;;;16.00;100607.00;;;;10287107;28;20201;-79
2021/10/20 00:28:54;;;;;;;6.65;3.15;;;;;15.80;100602.00;;;;10304435;28;20232;-79
2021/10/20 00:33:56;;;;;;;3.85;2.97;;;;;15.80;100602.00;;;;10279716;28;20197;-78
2021/10/20 00:38:58;;;;;;;4.75;3.10;;;;;15.80;100588.00;;;;10335773;28;20180;-78
2021/10/20 00:43:59;;;;;;;5.75;3.60;;;;;15.80;100588.00;;;;10279986;28;20201;-79
2021/10/20 00:49:01;;;;;;;6.53;3.15;;;;;15.80;100582.00;;;;10275125;28;20212;-79
2021/10/20 00:54:03;;;;;;;5.70;3.28;;;;;15.70;100570.00;;;;10288352;28;20196;-78
2021/10/20 00:59:06;;;;;;;5.10;3.58;;;;;15.80;100572.00;;;;10287083;28;20213;-79
2021/10/20 01:04:08;;;;;;;3.28;2.92;;;;;15.80;100562.00;;;;10278949;28;20201;-77
2021/10/20 01:09:10;;;;;;;3.83;3.28;;;;;15.80;100556.00;;;;10282259;28;20220;-79
2021/10/20 01:14:13;;;;;;;4.97;2.90;;;;;15.90;100539.00;;;;10286971;28;20193;-78
2021/10/20 01:19:15;;;;;;;4.07;2.90;;;;;15.90;100547.00;;;;10274057;28;20283;-78
2021/10/20 01:24:19;;;;;;;8.23;3.33;;;;;15.90;100543.00;;;;10277985;28;20272;-78
2021/10/20 01:29:21;;;;;;;6.03;3.40;;;;;15.90;100540.00;;;;10286647;28;20212;-78
2021/10/20 01:34:24;;;;;;;8.23;3.65;;;;;16.00;100525.00;;;;10249002;28;20199;-78
2021/10/20 01:39:26;;;;;;;4.70;3.50;;;;;15.90;100528.00;;;;10274804;28;20223;-78
2021/10/20 01:44:27;;;;;;;4.03;3.40;;;;;15.90;100521.00;;;;10285864;28;20283;-78
2021/10/20 01:49:29;;;;;;;4.53;3.75;;;;;15.90;100519.00;;;;10259084;28;20208;-78
2021/10/20 01:54:31;;;;;;;4.63;3.65;;;;;15.90;100511.00;;;;10301402;28;20273;-78
2021/10/20 01:59:33;;;;;;;6.68;3.83;;;;;15.90;100502.00;;;;10284962;28;20240;-78
2021/10/20 02:04:39;;;;;;;3.58;3.25;;;;;15.90;100496.00;;;;10301000;28;20223;-78
2021/10/20 02:09:41;;;;;;;6.15;3.67;;;;;15.80;100482.00;;;;10306590;28;20265;-78
2021/10/20 02:14:43;;;;;;;5.45;3.90;;;;;15.80;100468.00;;;;10300549;28;20200;-78
2021/10/20 02:19:44;;;;;;;6.45;3.58;;;;;15.80;100458.00;;;;10285108;28;20189;-78
2021/10/20 02:24:46;;;;;;;4.57;3.00;;;;;15.90;100467.00;;;;10284638;28;20188;-78
2021/10/20 02:29:48;;;;;;;7.25;3.40;;;;;15.90;100461.00;;;;10300448;28;20209;-77
2021/10/20 02:34:50;;;;;;;4.20;3.40;;;;;16.00;100450.00;;;;10300259;28;20214;-78
2021/10/20 02:39:52;;;;;;;4.60;3.17;;;;;16.00;100449.00;;;;10284047;28;20607;-78
2021/10/20 02:44:54;;;;;;;7.63;3.78;;;;;16.00;100440.00;;;;10300165;28;20188;-78
2021/10/20 02:49:56;;;;;;;6.72;4.00;;;;;16.10;100441.00;;;;10300273;28;20267;-78
2021/10/20 02:54:58;;;;;;;7.23;4.30;;;;;16.20;100442.00;;;;10347934;28;20227;-78
2021/10/20 03:00:00;;;;;;;5.30;4.05;;;;;16.20;100439.00;;;;10302626;28;20226;-78
2021/10/20 03:05:03;;;;;;;4.63;4.05;;;;;16.30;100426.00;;;;10308978;28;20198;-78
2021/10/20 03:10:05;;;;;;;5.15;4.22;;;;;16.30;100430.00;;;;10331877;28;20220;-78
2021/10/20 03:15:08;;;;;;;8.18;4.80;;;;;16.30;100435.00;;;;10363860;28;20202;-78
2021/10/20 03:20:10;;;;;;;5.35;4.35;;;;;16.30;100418.00;;;;10347692;28;20196;-78
2021/10/20 03:25:13;;;;;;;12.52;4.45;;;;;16.30;100414.00;;;;10323484;28;20197;-78
2021/10/20 03:30:17;;;;;;;6.32;4.45;;;;;16.20;100404.00;;;;10270723;28;20247;-78
2021/10/20 03:35:19;;;;;;;6.38;5.05;;;;;16.20;100392.00;;;;10291499;28;20193;-78
2021/10/20 03:40:21;;;;;;;5.70;4.90;;;;;16.20;100391.00;;;;10306805;28;20196;-78
2021/10/20 03:45:26;;;;;;;7.72;4.55;;;;;16.10;100380.00;;;;10306194;28;20192;-79
2021/10/20 03:50:28;;;;;;;9.05;4.80;;;;;16.00;100375.00;;;;10322633;28;20246;-78
2021/10/20 03:55:30;;;;;;;5.28;4.30;;;;;15.90;100375.00;;;;10277379;28;20289;-77
2021/10/20 04:00:32;;;;;;;8.38;4.75;;;;;15.80;100359.00;;;;10305224;28;20195;-78
2021/10/20 04:05:34;;;;;;;8.02;4.60;;;;;15.70;100345.00;;;;10282378;28;20226;-78
2021/10/20 04:10:36;;;;;;;8.93;6.05;;;;;15.60;100343.00;;;;10348400;28;20212;-78
2021/10/20 04:15:38;;;;;;;7.93;5.07;;;;;15.50;100337.00;;;;10280144;28;20663;-78
2021/10/20 04:20:40;;;;;;;6.55;4.80;;;;;15.50;100320.00;;;;10262314;28;20255;-78
2021/10/20 04:25:42;;;;;;;7.32;4.93;;;;;15.50;100312.00;;;;10288931;28;20203;-78
2021/10/20 04:30:43;;;;;;;8.05;5.13;;;;;15.40;100310.00;;;;10304745;28;20216;-78
2021/10/20 04:35:45;;;;;;;6.20;4.63;;;;;15.30;100304.00;;;;10288730;28;20223;-78
2021/10/20 04:40:47;;;;;;;8.57;4.68;;;;;15.20;100320.00;;;;10304091;28;20258;-78
2021/10/20 04:45:51;;;;;;;5.43;4.33;;;;;15.10;100325.00;;;;10304038;28;20656;-78
2021/10/20 04:50:53;;;;;;;8.13;4.40;;;;;15.10;100323.00;;;;10304042;28;20259;-78
2021/10/20 04:55:55;;;;;;;6.60;4.57;;;;;15.10;100309.00;;;;10303828;28;20216;-78
2021/10/20 05:00:57;;;;;;;8.30;5.53;;;;;15.10;100312.00;;;;10269967;28;20204;-78
2021/10/20 05:05:59;;;;;;;5.53;4.30;;;;;15.10;100295.00;;;;10302420;28;20200;-77
2021/10/20 05:11:01;;;;;;;6.87;5.07;;;;;15.20;100288.00;;;;10303113;28;20212;-78
2021/10/20 05:16:03;;;;;;;5.50;4.73;;;;;15.30;100289.00;;;;10286736;28;20255;-78
2021/10/20 05:21:05;;;;;;;5.22;4.38;;;;;15.40;100277.00;;;;10286698;28;20279;-77
2021/10/20 05:26:07;;;;;;;6.63;5.03;;;;;15.50;100265.00;;;;10285822;28;20204;-77
2021/10/20 05:31:09;;;;;;;9.02;5.18;;;;;15.70;100230.00;;;;10286816;28;20212;-77
2021/10/20 05:36:12;;;;;;;5.22;4.72;;;;;15.70;100243.00;;;;10286591;28;20203;-78
2021/10/20 05:41:14;;;;;;;5.53;4.47;;;;;15.70;100240.00;;;;10317734;28;20189;-78
2021/10/20 05:46:16;;;;;;;5.57;4.63;;;;;15.70;100234.00;;;;10287673;28;20665;-78
2021/10/20 05:51:18;;;;;;;6.30;4.57;;;;;15.70;100235.00;;;;10289109;28;20212;-78
2021/10/20 05:56:20;;;;;;;6.10;4.78;;;;;15.70;100233.00;;;;10257318;28;20235;-78
2021/10/20 06:01:23;;;;;;;7.88;4.97;;;;;15.80;100203.00;;;;10280099;28;20188;-78
2021/10/20 06:06:26;;;;;;;5.72;4.70;;;;;15.80;100222.00;;;;10289742;28;20208;-78
2021/10/20 06:11:28;;;;;;;6.38;4.65;;;;;16.00;100228.00;;;;10283542;28;20271;-78
2021/10/20 06:16:36;;;;;;;6.70;4.80;;;;;16.00;100209.00;;;;10295856;28;20251;-79
2021/10/20 06:21:39;;;;;;;6.82;4.72;;;;;16.00;100213.00;;;;10315347;28;20196;-78
2021/10/20 06:26:41;;;;;;;7.72;5.20;;;;;16.10;100210.00;;;;10283718;28;20263;-78
2021/10/20 06:31:43;;;;;;;7.15;5.30;;;;;16.10;100226.00;;;;10281274;28;20259;-78
2021/10/20 06:36:45;;;;;;;6.82;5.15;;;;;16.20;100226.00;;;;10309703;28;20198;-79
2021/10/20 06:41:48;;;;;;;7.72;5.30;;;;;16.20;100256.00;;;;10283430;28;20184;-78
2021/10/20 06:46:50;;;;;;;9.95;6.00;;;;;16.10;100191.00;;;;10296162;28;20198;-78
2021/10/20 06:51:52;;;;;;;10.57;6.35;;;;;15.70;100106.00;;;;10312908;28;20216;-78
2021/10/20 06:56:55;;;;;;;9.02;6.03;;;;;15.50;100128.00;;;;10288507;28;20216;-78
2021/10/20 07:01:56;;;;;;;9.07;7.30;;;;;15.30;100089.00;;;;10330686;28;20204;-79
2021/10/20 07:06:59;;;;;;;9.15;7.68;;;;;15.20;100042.00;;;;10306962;28;20263;-78
2021/10/20 07:12:02;;;;;;;11.33;7.53;;;;;15.20;99968.00;;;;10293519;28;20200;-78
2021/10/20 07:17:08;;;;;;;9.70;7.67;;;;;15.20;100001.00;;;;10288863;28;20188;-79
2021/10/20 07:22:10;;;;;;;10.77;7.82;;;;;15.30;99991.00;;;;10302512;28;20242;-78
2021/10/20 07:27:12;;;;;;;8.20;7.10;;;;;15.30;99990.00;;;;10296466;28;20200;-77
2021/10/20 07:32:14;;;;;;;8.53;7.20;;;;;15.20;99951.00;;;;10298910;28;20204;-78
2021/10/20 07:37:16;;;;;;;10.40;7.53;;;;;15.30;100036.00;;;;10312649;28;20238;-77
2021/10/20 07:42:18;;;;;;;11.82;7.40;;;;;15.30;100027.00;;;;10302153;28;20200;-77
2021/10/20 07:47:24;;;;;;;9.95;7.82;;;;;15.30;100041.00;;;;10290632;28;20262;-77
2021/10/20 07:52:28;;;;;;;8.20;7.15;;;;;15.40;100048.00;;;;10304802;28;20216;-78
2021/10/20 07:57:30;;;;;;;9.27;8.40;;;;;15.60;100061.00;;;;10271334;28;20220;-77
2021/10/20 08:02:32;;;;;;;11.15;7.57;;;;;15.60;100074.00;;;;10285286;28;20271;-78
2021/10/20 08:07:34;;;;;;;9.40;8.03;;;;;15.70;100069.00;;;;10302578;28;20214;-78
2021/10/20 08:12:36;;;;;;;9.88;8.27;;;;;16.00;100097.00;;;;10249343;28;20575;-79
2021/10/20 08:17:38;;;;;;;9.27;7.90;;;;;16.20;100114.00;;;;10314687;28;20291;-79
2021/10/20 08:22:40;;;;;;;14.00;8.32;;;;;16.80;100144.00;;;;10302463;28;20207;-79
2021/10/20 08:27:42;;;;;;;11.15;6.25;;;;;17.20;100156.00;;;;10282087;28;20243;-78
2021/10/20 08:32:47;;;;;;;7.88;5.68;;;;;17.30;100136.00;;;;10300869;28;20223;-79
2021/10/20 08:37:55;;;;;;;10.30;5.65;;;;;17.90;100147.00;;;;10301313;28;20203;-78
2021/10/20 08:42:57;;;;;;;6.75;5.53;;;;;18.20;100138.00;;;;10329712;28;20718;-79
2021/10/20 08:47:59;;;;;;;8.85;5.22;;;;;18.20;100154.00;;;;10301974;28;20287;-80
2021/10/20 08:53:02;;;;;;;7.38;5.72;;;;;18.00;100157.00;;;;10274809;28;20207;-79
2021/10/20 08:58:04;;;;;;;10.18;5.78;;;;;17.60;100124.00;;;;10283650;28;20224;-79
2021/10/20 09:03:06;;;;;;;6.93;5.45;;;;;17.30;100110.00;;;;10299075;28;20196;-79
2021/10/20 09:08:08;;;;;;;10.43;6.07;;;;;17.10;100108.00;;;;10312141;28;20204;-80
2021/10/20 09:13:10;;;;;;;7.88;5.80;;;;;17.40;100102.00;;;;10300817;28;20212;-79
2021/10/20 09:18:14;;;;;;;10.10;6.78;;;;;17.70;100101.00;;;;10302457;28;20196;-80
2021/10/20 09:23:21;;;;;;;7.70;6.35;;;;;18.00;100093.00;;;;10300570;28;20192;-80
2021/10/20 09:28:25;;;;;;;6.63;5.93;;;;;18.60;100095.00;;;;10303936;28;20196;-80
2021/10/20 09:33:30;;;;;;;8.35;5.85;;;;;18.80;100078.00;;;;10299115;28;20575;-79
2021/10/20 09:38:51;;;;;;;11.73;6.00;;;;;19.30;100088.00;;;;10285098;28;20188;-79
2021/10/20 09:43:56;;;;;;;9.10;5.90;;;;;19.30;100096.00;;;;10268049;28;20291;-80
2021/10/20 09:49:13;;;;;;;7.18;5.68;;;;;18.70;100068.00;;;;10306229;28;20203;-79
2021/10/20 09:54:29;;;;;;;10.48;6.57;;;;;18.80;100079.00;;;;10277854;28;20215;-80
2021/10/20 09:59:32;;;;;;;7.07;6.38;;;;;19.00;100074.00;;;;10298709;28;20255;-80
2021/10/20 10:04:37;;;;;;;10.80;6.35;;;;;19.00;100082.00;;;;10300708;28;20203;-79
2021/10/20 10:09:39;;;;;;;8.73;6.60;;;;;18.50;100084.00;;;;10288026;28;20204;-79
2021/10/20 10:14:49;;;;;;;8.20;6.30;;;;;18.20;100062.00;;;;10299027;28;20196;-79
2021/10/20 10:19:51;;;;;;;6.95;6.25;;;;;18.10;100053.00;;;;10283993;28;20207;-79
2021/10/20 10:24:58;;;;;;;10.63;6.22;;;;;17.90;100056.00;;;;10306523;28;20207;-79
2021/10/20 10:30:15;;;;;;;7.15;6.05;;;;;17.70;100050.00;;;;10303055;28;20200;-78
2021/10/20 10:35:20;;;;;;;10.68;6.20;;;;;17.70;100047.00;;;;10294228;28;20204;-79
2021/10/20 10:40:25;;;;;;;6.82;6.18;;;;;17.80;100036.00;;;;10313973;28;20215;-78
2021/10/20 10:45:29;;;;;;;8.75;5.82;;;;;17.90;100028.00;;;;10271688;28;20234;-79
2021/10/20 10:50:55;;;;;;;7.95;6.43;;;;;17.60;100029.00;;;;10300403;28;20212;-79
2021/10/20 10:56:04;;;;;;;8.57;6.68;;;;;17.40;100029.00;;;;10296684;28;20218;-79
2021/10/20 11:01:06;;;;;;;8.20;6.75;;;;;17.50;100021.00;;;;10275344;28;20219;-79
2021/10/20 11:06:08;;;;;;;8.57;5.47;;;;;17.70;100024.00;;;;10338506;28;20254;-79
2021/10/20 11:11:11;;;;;;;6.03;5.35;;;;;18.00;100025.00;;;;10283287;28;20244;-79
2021/10/20 11:16:13;;;;;;;9.45;5.78;;;;;18.20;100014.00;;;;10276448;28;20224;-79
2021/10/20 11:21:15;;;;;;;6.82;5.88;;;;;18.00;100029.00;;;;10302027;28;20208;-79
2021/10/20 11:26:18;;;;;;;11.05;5.78;;;;;18.00;100007.00;;;;10293421;28;20210;-80
2021/10/20 11:31:20;;;;;;;7.07;5.30;;;;;17.80;100011.00;;;;10299057;28;20303;-80
2021/10/20 11:36:22;;;;;;;7.50;5.40;;;;;17.80;100000.00;;;;10302629;28;20188;-80
2021/10/20 11:41:23;;;;;;;8.85;6.28;;;;;17.80;100001.00;;;;10289235;28;20196;-79
2021/10/20 11:46:31;;;;;;;8.00;5.50;;;;;17.70;99988.00;;;;10309157;28;20204;-80
2021/10/20 11:51:33;;;;;;;8.80;5.80;;;;;18.20;99975.00;;;;10293792;28;20303;-80
2021/10/20 11:56:35;;;;;;;8.50;5.88;;;;;18.20;99970.00;;;;10294814;28;20213;-80
2021/10/20 12:01:38;;;;;;;9.23;5.82;;;;;18.20;99965.00;;;;10284092;28;20204;-79
2021/10/20 12:06:41;;;;;;;8.95;5.88;;;;;18.00;99958.00;;;;10303904;28;20212;-80
2021/10/20 12:11:43;;;;;;;7.53;5.10;;;;;18.10;99950.00;;;;10289724;28;20256;-80
2021/10/20 12:16:47;;;;;;;5.63;5.03;;;;;18.60;99950.00;;;;10299923;28;20196;-79
2021/10/20 12:21:49;;;;;;;9.38;6.40;;;;;18.80;99934.00;;;;10288722;28;20259;-80
2021/10/20 12:26:54;;;;;;;7.43;5.43;;;;;19.00;99932.00;;;;10301397;28;20200;-80
2021/10/20 12:31:58;;;;;;;8.65;5.70;;;;;19.20;99933.00;;;;10277891;28;20207;-79
2021/10/20 12:37:02;;;;;;;8.02;5.85;;;;;19.00;99919.00;;;;10287865;28;20551;-79
2021/10/20 12:42:04;;;;;;;8.15;6.00;;;;;19.50;99908.00;;;;10303273;28;20230;-80
2021/10/20 12:47:06;;;;;;;7.22;5.53;;;;;19.80;99903.00;;;;10295822;28;20201;-80
2021/10/20 12:52:08;;;;;;;7.55;5.28;;;;;20.00;99902.00;;;;10302539;28;20213;-79
2021/10/20 12:57:25;;;;;;;7.20;5.32;;;;;20.00;99890.00;;;;10322765;28;20239;-80
2021/10/20 13:02:27;;;;;;;8.43;5.40;;;;;20.10;99880.00;;;;10301598;28;20223;-79
2021/10/20 13:07:29;;;;;;;9.27;5.05;;;;;20.00;99882.00;;;;10274199;28;20211;-79
2021/10/20 13:12:31;;;;;;;5.65;4.90;;;;;19.90;99877.00;;;;10286830;28;20219;-79
2021/10/20 13:17:38;;;;;;;6.35;5.07;;;;;19.90;99874.00;;;;10277809;28;20219;-79
2021/10/20 13:22:43;;;;;;;8.48;4.82;;;;;19.90;99858.00;;;;10288121;28;20197;-79
2021/10/20 13:27:45;;;;;;;8.00;5.53;;;;;19.80;99858.00;;;;10290391;28;20299;-79
2021/10/20 13:32:47;;;;;;;10.65;5.35;;;;;19.90;99861.00;;;;10303985;28;20239;-80
2021/10/20 13:37:49;;;;;;;11.25;5.85;;;;;19.70;99856.00;;;;10302017;28;20210;-80
2021/10/20 13:42:51;;;;;;;7.93;5.80;;;;;19.30;99841.00;;;;10283043;28;20652;-80
2021/10/20 13:47:54;;;;;;;9.32;5.75;;;;;19.10;99827.00;;;;10315335;28;20201;-79
2021/10/20 13:52:57;;;;;;;8.55;4.93;;;;;19.20;99811.00;;;;10281376;28;20204;-79
2021/10/20 13:58:01;;;;;;;9.48;5.45;;;;;19.20;99826.00;;;;10276872;28;20272;-79
2021/10/20 14:03:03;;;;;;;7.20;5.07;;;;;19.30;99818.00;;;;10302721;28;20201;-80
2021/10/20 14:08:05;;;;;;;7.22;5.20;;;;;19.20;99794.00;;;;10302647;28;20216;-79
2021/10/20 14:13:07;;;;;;;7.40;5.15;;;;;19.10;99795.00;;;;10293518;28;20294;-80
2021/10/20 14:18:10;;;;;;;6.97;5.25;;;;;18.90;99796.00;;;;10296083;28;20223;-78
2021/10/20 14:23:13;;;;;;;6.65;5.32;;;;;18.70;99792.00;;;;10316154;28;20226;-79
2021/10/20 14:28:15;;;;;;;10.13;5.57;;;;;18.70;99778.00;;;;10284852;28;20196;-79
2021/10/20 14:33:17;;;;;;;9.85;5.50;;;;;18.50;99779.00;;;;10312392;28;20272;-78
2021/10/20 14:38:19;;;;;;;7.55;5.47;;;;;18.30;99754.00;;;;10336639;28;20203;-79
2021/10/20 14:43:43;;;;;;;8.75;5.35;;;;;18.00;99764.00;;;;10301878;28;20267;-79
2021/10/20 14:48:50;;;;;;;9.00;5.40;;;;;17.80;99741.00;;;;10295830;28;20185;-79
2021/10/20 14:53:52;;;;;;;9.45;6.85;;;;;17.60;99730.00;;;;10294730;28;20216;-79
2021/10/20 14:58:54;;;;;;;9.48;6.15;;;;;17.40;99695.00;;;;10315545;28;20282;-79
2021/10/20 15:03:56;;;;;;;7.80;5.32;;;;;17.30;99702.00;;;;10304923;28;20200;-79
2021/10/20 15:08:58;;;;;;;6.85;4.50;;;;;17.20;99702.00;;;;10297592;28;20208;-79
2021/10/20 15:14:01;;;;;;;6.13;4.70;;;;;17.30;99698.00;;;;10303606;28;20204;-79
2021/10/20 15:24:25;;;;;;;9.02;4.80;;;;;17.30;99686.00;;;;10303150;28;20644;-79
2021/10/20 15:29:27;;;;;;;8.65;5.10;;;;;17.30;99683.00;;;;10294776;28;20196;-79
2021/10/20 15:34:29;;;;;;;8.90;4.60;;;;;17.20;99674.00;;;;10303554;28;20676;-79
2021/10/20 15:39:36;;;;;;;11.00;5.15;;;;;17.20;99669.00;;;;10303672;28;20200;-79
2021/10/20 15:44:39;;;;;;;7.47;4.57;;;;;17.20;99671.00;;;;10309026;28;20216;-80
2021/10/20 15:49:45;;;;;;;6.22;4.40;;;;;17.20;99657.00;;;;10319680;28;20838;-79
2021/10/20 15:54:50;;;;;;;7.47;4.05;;;;;17.20;99661.00;;;;10288414;28;20299;-81
2021/10/20 15:59:52;;;;;;;10.13;4.90;;;;;17.20;99632.00;;;;10319310;28;20196;-79
2021/10/20 16:04:55;;;;;;;8.75;4.07;;;;;17.20;99632.00;;;;10287383;28;20215;-80
2021/10/20 16:09:57;;;;;;;7.05;4.13;;;;;17.10;99638.00;;;;10285123;28;20255;-79
2021/10/20 16:14:59;;;;;;;6.95;4.13;;;;;17.00;99612.00;;;;10281157;28;20226;-79
2021/10/20 16:20:04;;;;;;;6.22;3.25;;;;;17.00;99600.00;;;;10301255;28;20270;-80
2021/10/20 16:25:12;;;;;;;6.63;5.03;;;;;17.00;99603.00;;;;10318978;28;20283;-80
2021/10/20 16:30:15;;;;;;;6.60;3.45;;;;;17.00;99596.00;;;;10282859;28;20282;-79
2021/10/20 16:35:17;;;;;;;5.90;3.95;;;;;17.10;99590.00;;;;10302279;28;20299;-79
2021/10/20 16:40:19;;;;;;;8.00;3.85;;;;;17.20;99590.00;;;;10287205;28;20278;-79
2021/10/20 16:45:21;;;;;;;4.50;3.15;;;;;17.20;99584.00;;;;10281292;28;20617;-79
2021/10/20 16:50:24;;;;;;;9.65;4.00;;;;;17.10;99595.00;;;;10287032;28;20603;-79
2021/10/20 16:55:26;;;;;;;8.15;3.95;;;;;17.10;99578.00;;;;10316482;28;20223;-79
2021/10/20 17:00:28;;;;;;;7.22;4.20;;;;;17.10;99578.00;;;;10298779;28;20201;-79
2021/10/20 17:05:31;;;;;;;7.88;4.07;;;;;17.00;99588.00;;;;10296498;28;20192;-78
2021/10/20 17:10:33;;;;;;;6.60;3.75;;;;;16.80;99594.00;;;;10271295;28;20239;-79
2021/10/20 17:15:35;;;;;;;7.60;4.10;;;;;16.30;99575.00;;;;10318064;28;20216;-79
2021/10/20 17:20:37;;;;;;;6.38;3.55;;;;;16.10;99564.00;;;;10291974;28;20215;-79
2021/10/20 17:25:41;;;;;;;10.10;4.35;;;;;15.90;99536.00;;;;10294830;28;20235;-80
2021/10/20 17:30:43;;;;;;;5.32;3.28;;;;;15.70;99522.00;;;;10296962;28;20311;-79
2021/10/20 17:35:48;;;;;;;7.00;3.42;;;;;15.70;99533.00;;;;10280706;28;20212;-80
2021/10/20 17:40:50;;;;;;;6.50;3.80;;;;;15.60;99535.00;;;;10289681;28;20200;-80
2021/10/20 17:45:52;;;;;;;7.97;4.10;;;;;15.60;99525.00;;;;10295647;28;20200;-80
2021/10/20 17:50:54;;;;;;;10.48;5.00;;;;;15.50;99522.00;;;;10281416;28;20207;-80
2021/10/20 17:55:58;;;;;;;10.07;5.03;;;;;15.40;99518.00;;;;10271235;28;20818;-78
2021/10/20 18:01:01;;;;;;;9.30;4.07;;;;;15.30;99506.00;;;;10265795;28;20196;-78
2021/10/20 18:06:04;;;;;;;8.50;3.33;;;;;15.30;99503.00;;;;10284829;28;20201;-78
2021/10/20 18:11:06;;;;;;;8.98;4.13;;;;;15.20;99503.00;;;;10293867;28;20604;-77
2021/10/20 18:16:08;;;;;;;9.40;4.37;;;;;15.20;99503.00;;;;10277653;28;20904;-80
2021/10/20 18:21:11;;;;;;;11.57;4.37;;;;;15.20;99498.00;;;;10282603;28;20262;-78
2021/10/20 18:26:13;;;;;;;10.53;4.17;;;;;15.10;99485.00;;;;10278638;28;20204;-79
2021/10/20 18:31:21;;;;;;;7.37;3.80;;;;;15.00;99468.00;;;;10286056;28;20212;-78
2021/10/20 18:36:23;;;;;;;6.87;3.70;;;;;14.90;99469.00;;;;10294624;28;20196;-78
2021/10/20 18:41:25;;;;;;;11.23;3.60;;;;;14.80;99474.00;;;;10284556;28;20231;-78
2021/10/20 18:46:30;;;;;;;7.13;4.10;;;;;14.80;99447.00;;;;10292608;28;20579;-79
2021/10/20 18:51:32;;;;;;;9.67;3.90;;;;;14.80;99468.00;;;;10273244;28;20208;-79
2021/10/20 18:56:36;;;;;;;11.03;3.90;;;;;14.70;99468.00;;;;10279322;28;20275;-78
2021/10/20 19:01:38;;;;;;;10.53;4.50;;;;;14.70;99455.00;;;;10298611;28;20660;-79
2021/10/20 19:06:41;;;;;;;9.47;4.10;;;;;14.70;99444.00;;;;10303391;28;20200;-78
2021/10/20 19:11:46;;;;;;;13.27;4.03;;;;;14.70;99431.00;;;;10290622;28;20208;-79
2021/10/20 19:16:49;;;;;;;9.53;4.23;;;;;14.70;99421.00;;;;10308582;28;20239;-79
2021/10/20 19:21:52;;;;;;;8.20;3.97;;;;;14.70;99376.00;;;;10301554;28;20271;-78
2021/10/20 19:26:54;;;;;;;5.50;3.60;;;;;14.70;99366.00;;;;10298569;28;20191;-78
2021/10/20 19:31:56;;;;;;;9.97;4.57;;;;;14.60;99388.00;;;;10279950;28;20266;-78
2021/10/20 19:36:58;;;;;;;10.27;4.37;;;;;14.60;99371.00;;;;10300088;28;20193;-79
2021/10/20 19:42:00;;;;;;;10.33;4.50;;;;;14.60;99363.00;;;;10295418;28;20199;-78
2021/10/20 19:47:06;;;;;;;13.83;5.03;;;;;14.60;99321.00;;;;10303645;28;20224;-79
2021/10/20 19:52:08;;;;;;;14.87;5.27;;;;;14.50;99305.00;;;;10317597;28;20208;-79
2021/10/20 19:57:09;;;;;;;8.87;4.97;;;;;14.30;99288.00;;;;10271015;28;20224;-78
2021/10/20 20:02:11;;;;;;;17.13;7.10;;;;;14.30;99259.00;;;;10308949;28;20253;-79
2021/10/20 20:07:13;;;;;;;17.87;7.97;;;;;14.20;99235.00;;;;10303448;28;20242;-79
2021/10/20 20:12:16;;;;;;;13.67;7.10;;;;;14.10;99207.00;;;;10275517;28;20304;-78
2021/10/20 20:17:18;;;;;;;13.83;8.37;;;;;14.10;99189.00;;;;10297563;28;20196;-78
2021/10/20 20:22:29;;;;;;;15.33;9.40;;;;;14.20;99180.00;;;;10304469;28;20196;-78
2021/10/20 20:27:34;;;;;;;18.20;8.43;;;;;14.20;99168.00;;;;10295690;28;20215;-78
2021/10/20 20:32:36;;;;;;;15.20;9.87;;;;;14.30;99157.00;;;;10297270;28;20208;-79
2021/10/20 20:37:38;;;;;;;19.73;9.40;;;;;14.40;99141.00;;;;10297252;28;20203;-78
2021/10/20 20:42:40;;;;;;;16.60;9.30;;;;;14.50;99127.00;;;;10294118;28;20242;-78
2021/10/20 20:47:42;;;;;;;16.33;8.57;;;;;14.60;99100.00;;;;10292477;28;20224;-79
2021/10/20 20:52:44;;;;;;;16.77;8.83;;;;;14.70;99082.00;;;;10311380;28;20267;-78
2021/10/20 20:57:46;;;;;;;17.23;8.37;;;;;14.80;99068.00;;;;10281638;28;20228;-79
2021/10/20 21:02:48;;;;;;;16.03;7.73;;;;;14.90;99044.00;;;;10280291;28;20571;-79
2021/10/20 21:07:50;;;;;;;14.63;7.60;;;;;15.00;99039.00;;;;10297197;28;20204;-78
2021/10/20 21:12:52;;;;;;;15.90;7.53;;;;;15.10;99027.00;;;;10295314;28;20695;-78
2021/10/20 21:17:54;;;;;;;12.87;7.17;;;;;15.10;99018.00;;;;10280656;28;20722;-78
2021/10/20 21:22:56;;;;;;;15.80;6.90;;;;;15.20;98988.00;;;;10293157;28;20671;-78
2021/10/20 21:27:58;;;;;;;15.03;7.70;;;;;15.20;98980.00;;;;10289062;28;20611;-78
2021/10/20 21:33:03;;;;;;;11.93;6.37;;;;;15.20;98947.00;;;;10284584;28;20212;-79
2021/10/20 21:38:04;;;;;;;12.50;6.80;;;;;15.30;98947.00;;;;10293278;28;20200;-78
2021/10/20 21:43:07;;;;;;;11.63;6.20;;;;;15.20;98933.00;;;;10279886;28;20219;-77
2021/10/20 21:48:09;;;;;;;11.00;6.40;;;;;15.20;98908.00;;;;10282352;28;20200;-78
2021/10/20 21:53:12;;;;;;;13.70;6.90;;;;;15.20;98884.00;;;;10293723;28;20745;-78
2021/10/20 21:58:14;;;;;;;11.30;6.20;;;;;15.20;98861.00;;;;10272574;28;20239;-78
2021/10/20 22:03:16;;;;;;;12.23;5.90;;;;;15.30;98839.00;;;;10279803;28;20754;-79
2021/10/20 22:08:18;;;;;;;13.67;6.50;;;;;15.30;98825.00;;;;10294492;28;20875;-78
2021/10/20 22:13:20;;;;;;;10.40;6.07;;;;;15.30;98818.00;;;;10335052;28;20306;-78
2021/10/20 22:18:23;;;;;;;9.60;6.60;;;;;15.30;98788.00;;;;10295555;28;20234;-77
2021/10/20 22:23:24;;;;;;;9.68;5.70;;;;;15.40;98780.00;;;;10300315;28;20738;-78
2021/10/20 22:28:27;;;;;;;9.67;5.83;;;;;15.20;98721.00;;;;10296111;28;20247;-78
2021/10/20 22:33:29;;;;;;;9.50;5.20;;;;;15.10;98697.00;;;;10286473;28;20616;-79
2021/10/20 22:38:31;;;;;;;7.57;4.85;;;;;15.00;98664.00;;;;10279395;28;20196;-78
2021/10/20 22:43:33;;;;;;;12.00;4.67;;;;;15.00;98653.00;;;;10306740;28;20206;-78
2021/10/20 22:48:35;;;;;;;8.90;5.50;;;;;15.00;98608.00;;;;10309597;28;20203;-78
2021/10/20 22:53:37;;;;;;;11.30;5.77;;;;;15.00;98577.00;;;;10279878;28;20213;-78
2021/10/20 22:58:39;;;;;;;10.07;4.93;;;;;15.00;98577.00;;;;10299283;28;20212;-78
2021/10/20 23:03:41;;;;;;;12.50;5.43;;;;;14.90;98585.00;;;;10278250;28;20189;-78
2021/10/20 23:08:43;;;;;;;11.47;6.07;;;;;14.80;98603.00;;;;10296087;28;20204;-78
2021/10/20 23:13:45;;;;;;;6.30;3.13;;;;;14.70;98563.00;;;;10290614;28;20200;-78
2021/10/20 23:18:47;;;;;;;9.07;4.70;;;;;14.40;98527.00;;;;10300614;28;20189;-78
2021/10/20 23:23:49;;;;;;;10.97;4.33;;;;;14.30;98504.00;;;;10304687;28;20192;-78
2021/10/20 23:28:51;;;;;;;11.10;4.87;;;;;14.30;98479.00;;;;10266769;28;20193;-78
2021/10/20 23:33:53;;;;;;;9.67;4.23;;;;;14.20;98454.00;;;;10322471;28;20216;-78
2021/10/20 23:38:54;;;;;;;7.43;3.00;;;;;14.00;98462.00;;;;10306480;28;20196;-78
2021/10/20 23:43:57;;;;;;;3.63;2.33;;;;;13.80;98481.00;;;;10274369;28;20239;-78
2021/10/20 23:48:59;;;;;;;5.23;2.20;;;;;13.60;98491.00;;;;10289157;28;20204;-78
2021/10/20 23:54:03;;;;;;;6.60;2.10;;;;;13.50;98490.00;;;;10305467;28;20918;-78
2021/10/20 23:59:05;;;;;;;3.63;2.10;;;;;13.40;98498.00;;;;10321698;28;20220;-78
